Time;durP1;ratioP1;P1;durP2;ratioP2;P2;SDS_P1;SDS_P2;PMS_P1;PMS_P2;Temp;Humidity;BMP_temperature;BMP_pressure;BME280_temperature;BME280_humidity;BME280_pressure;Samples;Min_cycle;Max_cycle;Signal;HPM_P1;HPM_P2
2023/10/21 00:00:33;;;;;;;0.13;0.13;;;;;;;21.45;58.65;98416.63;5070965;28;20085;-70
2023/10/21 00:02:58;;;;;;;0.10;0.10;;;;;;;21.52;58.60;98414.09;5071012;28;20070;-71
2023/10/21 00:05:25;;;;;;;0.28;0.28;;;;;;;21.28;58.97;98426.03;5070797;28;20044;-72
2023/10/21 00:07:51;;;;;;;0.17;0.17;;;;;;;21.46;58.22;98418.25;5070599;28;20072;-71
2023/10/21 00:10:16;;;;;;;0.20;0.20;;;;;;;21.10;59.48;98430.25;5070916;28;20036;-71
2023/10/21 00:12:44;;;;;;;0.20;0.20;;;;;;;21.18;58.99;98429.28;5071056;28;20028;-71
2023/10/21 00:15:10;;;;;;;0.22;0.22;;;;;;;21.39;58.98;98428.97;5070982;28;20049;-72
2023/10/21 00:17:55;;;;;;;0.20;0.20;;;;;;;21.38;58.65;98432.88;5070427;28;20086;-71
2023/10/21 00:20:20;;;;;;;0.10;0.10;;;;;;;21.26;58.62;98441.97;5070789;28;20054;-71
2023/10/21 00:22:46;;;;;;;0.20;0.20;;;;;;;21.23;58.72;98437.19;5070856;28;20037;-71
2023/10/21 00:25:11;;;;;;;0.10;0.10;;;;;;;21.05;59.03;98451.56;5051786;28;20036;-71
2023/10/21 00:27:36;;;;;;;0.20;0.20;;;;;;;21.09;58.53;98453.22;5070578;28;20028;-71
2023/10/21 00:30:02;;;;;;;0.30;0.30;;;;;;;21.10;58.74;98454.81;5070856;28;20380;-71
2023/10/21 00:32:27;;;;;;;0.13;0.13;;;;;;;20.98;58.84;98463.06;5070218;28;20036;-70
2023/10/21 00:34:53;;;;;;;0.17;0.17;;;;;;;20.92;58.79;98464.47;5070180;28;20044;-72
2023/10/21 00:37:18;;;;;;;0.20;0.20;;;;;;;20.99;58.69;98461.94;5070116;28;20032;-71
2023/10/21 00:39:44;;;;;;;0.20;0.20;;;;;;;20.94;58.82;98462.97;5070228;28;20024;-72
2023/10/21 00:42:10;;;;;;;0.10;0.10;;;;;;;20.94;58.52;98464.91;5070787;28;20036;-71
2023/10/21 00:44:35;;;;;;;0.20;0.20;;;;;;;21.04;58.09;98463.63;5070151;28;20056;-71
2023/10/21 00:47:00;;;;;;;0.20;0.20;;;;;;;20.85;58.48;98472.50;5070059;28;20098;-71
2023/10/21 00:49:30;;;;;;;0.15;0.15;;;;;;;20.98;58.53;98474.78;5051770;28;20036;-70
2023/10/21 00:51:56;;;;;;;0.17;0.17;;;;;;;20.66;59.40;98484.06;5069707;28;20036;-70
2023/10/21 00:54:25;;;;;;;0.20;0.20;;;;;;;20.35;60.00;98480.44;5069967;28;20432;-71
2023/10/21 00:56:51;;;;;;;0.10;0.10;;;;;;;20.32;60.46;98478.41;5070374;28;20471;-71
2023/10/21 00:59:17;;;;;;;0.10;0.10;;;;;;;20.40;60.11;98480.97;5069937;28;20072;-71
2023/10/21 01:01:43;;;;;;;0.10;0.10;;;;;;;20.28;60.74;98496.59;5052014;28;20052;-71
2023/10/21 01:04:10;;;;;;;0.17;0.17;;;;;;;20.66;59.57;98494.16;5069795;28;20551;-72
2023/10/21 01:06:36;;;;;;;0.20;0.20;;;;;;;20.34;61.08;98497.94;5069739;28;20037;-70
2023/10/21 01:09:01;;;;;;;0.20;0.20;;;;;;;20.56;59.97;98506.38;5070317;28;20027;-70
2023/10/21 01:11:26;;;;;;;0.20;0.20;;;;;;;20.47;60.24;98508.47;5069539;28;20033;-71
2023/10/21 01:13:54;;;;;;;0.10;0.10;;;;;;;20.41;60.46;98511.78;5069657;28;20052;-71
2023/10/21 01:16:19;;;;;;;0.20;0.20;;;;;;;20.69;59.25;98515.31;5069665;28;20116;-69
2023/10/21 01:18:45;;;;;;;0.17;0.17;;;;;;;20.59;59.72;98521.28;5070056;28;20037;-71
2023/10/21 01:21:10;;;;;;;0.20;0.20;;;;;;;20.82;58.36;98519.59;5070485;28;20036;-71
2023/10/21 01:23:36;;;;;;;0.20;0.20;;;;;;;20.64;58.78;98521.03;5070170;28;20033;-71
2023/10/21 01:26:02;;;;;;;0.20;0.20;;;;;;;20.71;58.87;98530.22;5070020;28;20033;-71
2023/10/21 01:28:29;;;;;;;0.20;0.20;;;;;;;20.68;58.96;98530.91;5069982;28;20107;-72
2023/10/21 01:30:55;;;;;;;0.10;0.10;;;;;;;20.65;58.75;98533.53;5070065;28;20051;-72
2023/10/21 01:33:20;;;;;;;0.20;0.20;;;;;;;20.71;58.41;98541.13;5070200;28;20029;-72
2023/10/21 01:35:46;;;;;;;0.20;0.20;;;;;;;20.36;59.58;98536.59;5069967;28;20064;-71
2023/10/21 01:38:11;;;;;;;0.22;0.22;;;;;;;20.41;59.11;98542.59;5070136;28;20443;-71
2023/10/21 01:40:37;;;;;;;0.10;0.10;;;;;;;20.39;59.11;98544.88;5069896;28;20032;-72
2023/10/21 01:43:02;;;;;;;0.10;0.10;;;;;;;20.45;58.77;98554.41;5069843;28;20036;-71
2023/10/21 01:45:28;;;;;;;0.10;0.10;;;;;;;20.52;58.99;98551.09;5070398;28;20070;-71
2023/10/21 01:47:53;;;;;;;0.10;0.10;;;;;;;20.42;59.26;98548.84;5070009;28;20029;-72
2023/10/21 01:50:19;;;;;;;0.20;0.20;;;;;;;20.56;58.83;98546.53;5069848;28;20090;-72
2023/10/21 01:52:44;;;;;;;0.10;0.10;;;;;;;20.60;58.71;98561.09;5069789;28;20123;-72
2023/10/21 01:55:10;;;;;;;0.30;0.30;;;;;;;20.48;58.36;98558.41;5069885;28;20492;-72
2023/10/21 01:57:36;;;;;;;0.10;0.10;;;;;;;20.33;59.39;98556.38;5069606;28;20058;-71
2023/10/21 02:00:08;;;;;;;0.20;0.20;;;;;;;20.46;59.17;98563.41;5070067;28;20020;-72
2023/10/21 02:02:35;;;;;;;0.10;0.10;;;;;;;20.63;58.23;98565.84;5069747;28;20112;-71
2023/10/21 02:05:01;;;;;;;0.10;0.10;;;;;;;20.67;58.39;98572.19;5069646;28;20036;-71
2023/10/21 02:07:26;;;;;;;0.10;0.10;;;;;;;20.51;59.47;98571.34;5072530;28;20047;-71
2023/10/21 02:09:52;;;;;;;0.20;0.20;;;;;;;20.55;59.09;98577.69;5054213;28;20086;-71
2023/10/21 02:12:17;;;;;;;0.20;0.20;;;;;;;20.31;59.36;98585.91;5073485;28;20047;-72
2023/10/21 02:14:42;;;;;;;0.13;0.13;;;;;;;20.60;58.71;98577.47;5072968;28;20045;-71
2023/10/21 02:17:08;;;;;;;0.20;0.20;;;;;;;20.75;58.15;98582.97;5073244;28;20029;-71
2023/10/21 02:19:33;;;;;;;0.10;0.10;;;;;;;20.56;58.28;98587.47;5073087;28;20199;-70
2023/10/21 02:21:58;;;;;;;0.10;0.10;;;;;;;20.36;59.20;98581.03;5072682;28;20032;-71
2023/10/21 02:24:24;;;;;;;0.10;0.10;;;;;;;20.43;58.37;98591.34;5073253;28;20476;-71
2023/10/21 02:26:49;;;;;;;0.17;0.17;;;;;;;20.32;59.60;98593.78;5072840;28;20044;-71
2023/10/21 02:29:15;;;;;;;0.20;0.20;;;;;;;20.29;59.37;98588.19;5072852;28;20052;-71
2023/10/21 02:31:41;;;;;;;0.20;0.20;;;;;;;20.47;58.35;98592.25;5054950;28;20508;-70
2023/10/21 02:34:07;;;;;;;0.20;0.20;;;;;;;20.56;58.18;98592.94;5072884;28;20115;-71
2023/10/21 02:36:33;;;;;;;0.28;0.28;;;;;;;20.31;58.62;98588.66;5072650;28;20031;-70
2023/10/21 02:38:59;;;;;;;0.10;0.10;;;;;;;20.47;58.45;98600.44;5073216;28;20503;-71
2023/10/21 02:41:24;;;;;;;0.30;0.30;;;;;;;20.48;58.35;98600.09;5072457;28;20037;-70
2023/10/21 02:43:50;;;;;;;0.13;0.13;;;;;;;20.50;57.98;98608.72;5072128;28;20032;-71
2023/10/21 02:46:15;;;;;;;0.10;0.10;;;;;;;20.56;57.88;98606.59;5072389;28;20496;-71
2023/10/21 02:48:43;;;;;;;0.10;0.10;;;;;;;20.40;58.39;98601.00;5071167;28;20029;-70
2023/10/21 02:51:10;;;;;;;0.20;0.20;;;;;;;20.50;57.87;98611.47;5052823;28;20112;-71
2023/10/21 02:53:36;;;;;;;0.10;0.10;;;;;;;20.48;58.28;98618.41;5034747;28;20465;-71
2023/10/21 02:56:07;;;;;;;0.10;0.10;;;;;;;20.46;58.45;98616.00;5052483;28;20029;-71
2023/10/21 02:58:34;;;;;;;0.20;0.20;;;;;;;20.46;58.37;98620.69;5052399;28;20115;-71
2023/10/21 03:01:20;;;;;;;0.10;0.10;;;;;;;20.62;57.96;98632.47;5035385;28;20401;-71
2023/10/21 03:03:48;;;;;;;0.13;0.13;;;;;;;20.43;58.24;98624.91;5052403;28;20503;-69
2023/10/21 03:06:15;;;;;;;0.20;0.20;;;;;;;20.44;57.90;98622.97;5068798;28;20024;-70
2023/10/21 03:08:40;;;;;;;0.15;0.15;;;;;;;20.43;57.82;98621.38;5071952;28;20035;-71
2023/10/21 03:11:07;;;;;;;0.10;0.10;;;;;;;20.43;57.97;98621.38;5071553;28;20036;-71
2023/10/21 03:13:34;;;;;;;0.20;0.20;;;;;;;20.34;57.91;98623.44;5071406;28;20544;-71
2023/10/21 03:16:11;;;;;;;0.17;0.17;;;;;;;20.38;57.87;98619.69;5071651;28;20049;-72
2023/10/21 03:18:38;;;;;;;0.20;0.20;;;;;;;20.42;57.68;98615.09;5071134;28;20033;-71
2023/10/21 03:21:04;;;;;;;0.20;0.20;;;;;;;20.40;57.84;98620.13;5071961;28;20027;-71
2023/10/21 03:23:30;;;;;;;0.15;0.15;;;;;;;20.36;57.86;98626.63;5071501;28;20025;-70
2023/10/21 03:25:57;;;;;;;0.10;0.10;;;;;;;20.41;58.19;98627.19;5071598;28;20311;-71
2023/10/21 03:28:23;;;;;;;0.10;0.10;;;;;;;20.16;58.72;98639.22;5071448;28;20033;-71
2023/10/21 03:30:49;;;;;;;0.20;0.20;;;;;;;20.28;58.86;98641.19;5071618;28;20028;-71
2023/10/21 03:33:15;;;;;;;0.15;0.15;;;;;;;20.33;58.31;98644.47;5072016;28;20187;-71
2023/10/21 03:35:40;;;;;;;0.20;0.20;;;;;;;20.33;58.34;98639.00;5071774;28;20044;-71
2023/10/21 03:38:06;;;;;;;0.20;0.20;;;;;;;20.38;58.34;98646.16;5071495;28;20408;-70
2023/10/21 03:40:31;;;;;;;0.13;0.13;;;;;;;20.36;58.19;98653.91;5071349;28;20055;-70
2023/10/21 03:42:57;;;;;;;0.10;0.10;;;;;;;19.92;60.54;98650.91;5071818;28;20044;-71
2023/10/21 03:45:22;;;;;;;0.20;0.20;;;;;;;20.41;58.82;98659.13;5067152;28;20021;-71
2023/10/21 03:47:48;;;;;;;0.20;0.20;;;;;;;20.47;58.70;98660.47;5051150;28;20448;-70
2023/10/21 03:50:14;;;;;;;0.20;0.20;;;;;;;20.70;58.07;98669.75;5033667;28;20037;-70
2023/10/21 03:52:39;;;;;;;0.20;0.20;;;;;;;20.22;60.10;98678.81;5051395;28;20083;-71
2023/10/21 03:55:05;;;;;;;0.13;0.13;;;;;;;20.35;59.10;98687.75;5051407;28;20103;-71
2023/10/21 03:57:31;;;;;;;0.20;0.20;;;;;;;20.55;58.97;98682.19;5051573;28;20504;-70
2023/10/21 04:00:00;;;;;;;0.20;0.20;;;;;;;20.40;59.26;98688.31;5033798;28;20067;-70
2023/10/21 04:02:25;;;;;;;0.20;0.20;;;;;;;20.59;58.75;98685.03;5043457;28;20444;-69
2023/10/21 04:04:51;;;;;;;0.10;0.10;;;;;;;20.62;58.60;98695.25;5052842;28;20044;-70
2023/10/21 04:07:16;;;;;;;0.20;0.20;;;;;;;20.85;57.80;98690.91;5050874;28;20029;-70
2023/10/21 04:09:42;;;;;;;0.10;0.10;;;;;;;20.74;58.52;98696.03;5050811;28;20037;-70
2023/10/21 04:12:07;;;;;;;0.20;0.20;;;;;;;20.55;59.42;98700.50;5051089;28;20029;-70
2023/10/21 04:14:33;;;;;;;0.20;0.20;;;;;;;20.77;58.59;98698.09;5062726;28;20048;-71
2023/10/21 04:16:58;;;;;;;0.20;0.20;;;;;;;20.58;59.34;98703.31;5070068;28;20036;-71
2023/10/21 04:19:23;;;;;;;0.10;0.10;;;;;;;20.76;58.82;98703.88;5069336;28;20475;-70
2023/10/21 04:21:49;;;;;;;0.10;0.10;;;;;;;20.76;59.08;98703.88;5070953;28;20033;-70
2023/10/21 04:24:15;;;;;;;0.20;0.20;;;;;;;20.88;58.52;98703.84;5071450;28;20028;-70
2023/10/21 04:26:40;;;;;;;0.10;0.10;;;;;;;20.67;59.58;98716.84;5070354;28;20032;-71
2023/10/21 04:29:06;;;;;;;0.13;0.13;;;;;;;21.02;57.94;98717.97;5070007;28;20032;-72
2023/10/21 04:31:39;;;;;;;0.20;0.20;;;;;;;20.98;58.04;98726.03;5070335;28;20029;-71
2023/10/21 04:34:04;;;;;;;0.10;0.10;;;;;;;20.86;58.25;98736.97;5070114;28;20469;-70
2023/10/21 04:36:29;;;;;;;0.20;0.20;;;;;;;20.51;59.12;98732.31;5070244;28;20073;-68
2023/10/21 04:38:55;;;;;;;0.10;0.10;;;;;;;20.97;58.14;98735.34;5052010;28;20036;-70
2023/10/21 04:41:20;;;;;;;0.20;0.20;;;;;;;20.96;58.20;98733.75;5070491;28;20528;-72
2023/10/21 04:43:46;;;;;;;0.10;0.10;;;;;;;20.56;59.63;98751.22;5070285;28;20392;-70
2023/10/21 04:46:12;;;;;;;0.10;0.10;;;;;;;20.92;58.07;98743.78;5070418;28;20569;-71
2023/10/21 04:48:37;;;;;;;0.20;0.20;;;;;;;20.88;58.22;98753.81;5070095;28;20044;-70
2023/10/21 04:51:03;;;;;;;0.20;0.20;;;;;;;20.96;57.99;98752.88;5070593;28;20388;-72
2023/10/21 04:53:28;;;;;;;0.13;0.13;;;;;;;20.91;58.11;98755.84;5051850;28;20032;-72
2023/10/21 04:55:53;;;;;;;0.20;0.20;;;;;;;20.89;58.28;98760.84;5070032;28;20040;-71
2023/10/21 04:58:19;;;;;;;0.20;0.20;;;;;;;21.10;57.54;98766.19;5069819;28;20512;-71
2023/10/21 05:00:44;;;;;;;0.10;0.10;;;;;;;20.93;58.04;98774.63;5070221;28;20028;-70
2023/10/21 05:03:09;;;;;;;0.20;0.20;;;;;;;21.06;57.53;98776.22;5070305;28;20083;-70
2023/10/21 05:05:55;;;;;;;0.20;0.20;;;;;;;21.10;57.60;98773.59;5069708;28;20036;-71
2023/10/21 05:08:20;;;;;;;0.30;0.30;;;;;;;21.19;57.13;98777.78;5069982;28;20500;-71
2023/10/21 05:10:45;;;;;;;0.15;0.15;;;;;;;20.59;59.24;98784.06;5069653;28;20040;-71
2023/10/21 05:13:11;;;;;;;0.20;0.20;;;;;;;20.78;58.51;98778.84;5069548;28;20430;-70
2023/10/21 05:15:36;;;;;;;0.15;0.15;;;;;;;20.67;58.84;98790.56;5069964;28;20021;-70
2023/10/21 05:18:03;;;;;;;0.30;0.30;;;;;;;20.81;58.53;98788.28;5070105;28;20404;-72
2023/10/21 05:20:28;;;;;;;0.13;0.13;;;;;;;20.80;58.77;98792.13;5069588;28;20523;-70
2023/10/21 05:22:53;;;;;;;0.10;0.10;;;;;;;20.85;58.12;98792.69;5069652;28;20032;-70
2023/10/21 05:25:19;;;;;;;0.15;0.15;;;;;;;20.87;58.57;98801.34;5069732;28;20028;-71
2023/10/21 05:27:45;;;;;;;0.10;0.10;;;;;;;20.90;58.25;98808.06;5069728;28;20408;-71
2023/10/21 05:30:12;;;;;;;0.20;0.20;;;;;;;20.97;58.10;98822.72;5070459;28;20043;-71
2023/10/21 05:32:38;;;;;;;0.10;0.10;;;;;;;21.06;57.79;98821.84;5069843;28;20504;-70
2023/10/21 05:35:07;;;;;;;0.20;0.20;;;;;;;21.05;58.21;98823.00;5069707;28;20186;-71
2023/10/21 05:37:32;;;;;;;0.10;0.10;;;;;;;21.00;58.34;98822.06;5069742;28;20048;-71
2023/10/21 05:39:58;;;;;;;0.10;0.10;;;;;;;20.52;60.28;98834.91;5071092;28;20029;-71
2023/10/21 05:42:23;;;;;;;0.13;0.13;;;;;;;20.98;58.69;98839.91;5074062;28;20032;-71
2023/10/21 05:44:49;;;;;;;0.10;0.10;;;;;;;21.02;58.14;98843.59;5073809;28;20040;-72
2023/10/21 05:47:14;;;;;;;0.28;0.28;;;;;;;20.93;58.31;98849.13;5073641;28;20037;-71
2023/10/21 05:49:40;;;;;;;0.20;0.20;;;;;;;21.07;57.93;98858.97;5073453;28;20203;-71
2023/10/21 05:52:05;;;;;;;0.20;0.20;;;;;;;20.98;58.20;98859.84;5073507;28;20081;-73
2023/10/21 05:54:31;;;;;;;0.10;0.10;;;;;;;21.06;58.74;98865.56;5073466;28;20020;-70
2023/10/21 05:56:57;;;;;;;0.30;0.30;;;;;;;20.74;59.74;98873.47;5055802;28;20027;-70
2023/10/21 05:59:22;;;;;;;0.20;0.20;;;;;;;20.87;59.32;98877.03;5072932;28;20131;-72
2023/10/21 06:01:47;;;;;;;0.20;0.20;;;;;;;21.33;57.70;98881.22;5073346;28;20037;-71
2023/10/21 06:04:13;;;;;;;0.20;0.20;;;;;;;21.14;58.13;98887.28;5073175;28;20028;-70
2023/10/21 06:06:38;;;;;;;0.10;0.10;;;;;;;21.10;58.48;98886.38;5073275;28;20456;-71
2023/10/21 06:09:04;;;;;;;0.17;0.17;;;;;;;21.20;58.15;98894.13;5073548;28;20070;-71
2023/10/21 06:11:29;;;;;;;0.20;0.20;;;;;;;21.20;58.64;98896.06;5073276;28;20035;-72
2023/10/21 06:13:55;;;;;;;0.30;0.30;;;;;;;21.24;58.54;98899.69;5072675;28;20052;-70
2023/10/21 06:16:21;;;;;;;0.20;0.20;;;;;;;21.33;58.11;98909.38;5072900;28;20033;-72
2023/10/21 06:18:46;;;;;;;0.20;0.20;;;;;;;21.08;59.43;98902.31;5073007;28;20033;-71
2023/10/21 06:21:11;;;;;;;0.20;0.20;;;;;;;20.77;60.50;98919.22;5073636;28;20021;-71
2023/10/21 06:23:38;;;;;;;0.25;0.25;;;;;;;21.38;58.63;98917.34;5072953;28;20041;-71
2023/10/21 06:26:10;;;;;;;0.10;0.10;;;;;;;21.45;59.17;98920.28;5072720;28;20036;-71
2023/10/21 06:28:37;;;;;;;0.10;0.10;;;;;;;21.49;57.92;98931.31;5072601;28;20044;-71
2023/10/21 06:31:04;;;;;;;0.13;0.13;;;;;;;21.48;57.92;98927.78;5072691;28;20032;-72
2023/10/21 06:33:29;;;;;;;0.20;0.20;;;;;;;21.13;59.75;98934.84;5072462;28;20115;-70
2023/10/21 06:35:55;;;;;;;0.20;0.20;;;;;;;21.18;59.46;98944.78;5092820;28;20024;-71
2023/10/21 06:38:20;;;;;;;0.30;0.30;;;;;;;21.31;58.47;98943.63;5092792;28;20036;-71
2023/10/21 06:40:46;;;;;;;0.20;0.20;;;;;;;21.59;57.94;98948.06;5092696;28;20032;-71
2023/10/21 06:43:12;;;;;;;0.20;0.20;;;;;;;21.57;58.02;98953.09;5092596;28;20043;-70
2023/10/21 06:45:38;;;;;;;0.20;0.20;;;;;;;21.03;60.22;98957.16;5092508;28;20036;-70
2023/10/21 06:48:04;;;;;;;0.20;0.20;;;;;;;21.51;58.44;98953.66;5093240;28;20039;-71
2023/10/21 06:50:30;;;;;;;0.10;0.10;;;;;;;21.52;58.26;98966.19;5092467;28;20040;-71
2023/10/21 06:52:56;;;;;;;0.20;0.20;;;;;;;21.39;58.45;98970.03;5092162;28;20407;-71
2023/10/21 06:55:21;;;;;;;0.10;0.10;;;;;;;21.49;58.42;98973.13;5092520;28;20024;-71
2023/10/21 06:57:47;;;;;;;0.20;0.20;;;;;;;21.42;58.84;98974.84;5083779;28;20033;-72
2023/10/21 07:00:13;;;;;;;0.10;0.10;;;;;;;21.62;58.03;98976.66;5072908;28;20029;-71
2023/10/21 07:02:39;;;;;;;0.20;0.20;;;;;;;21.52;58.38;98979.84;5072537;28;20043;-71
2023/10/21 07:05:09;;;;;;;0.20;0.20;;;;;;;21.47;58.45;98991.00;5071530;28;20052;-72
2023/10/21 07:07:36;;;;;;;0.17;0.17;;;;;;;21.56;58.06;98988.97;5071677;28;20040;-71
2023/10/21 07:10:01;;;;;;;0.10;0.10;;;;;;;21.47;57.96;98978.13;5071678;28;20078;-72
2023/10/21 07:12:27;;;;;;;0.10;0.10;;;;;;;21.49;58.70;98988.72;5071886;28;20024;-71
2023/10/21 07:14:52;;;;;;;0.13;0.13;;;;;;;21.35;59.19;98994.53;5071296;28;20052;-73
2023/10/21 07:17:18;;;;;;;0.13;0.13;;;;;;;21.24;59.53;98996.13;5071563;28;20041;-72
2023/10/21 07:19:44;;;;;;;0.20;0.20;;;;;;;21.59;57.98;98994.53;5071335;28;20496;-72
2023/10/21 07:22:09;;;;;;;0.20;0.20;;;;;;;21.57;58.17;99001.47;5071447;28;20039;-71
2023/10/21 07:24:35;;;;;;;0.10;0.10;;;;;;;21.80;57.52;99005.34;5071302;28;20078;-71
2023/10/21 07:27:01;;;;;;;0.22;0.22;;;;;;;21.78;57.68;99010.34;5071904;28;20029;-71
2023/10/21 07:29:26;;;;;;;0.10;0.10;;;;;;;21.70;58.02;99008.53;5071102;28;20485;-71
2023/10/21 07:31:52;;;;;;;0.10;0.10;;;;;;;21.81;57.89;99016.00;5071817;28;20033;-71
2023/10/21 07:34:17;;;;;;;0.20;0.20;;;;;;;21.69;58.66;99015.16;5071065;28;20416;-72
2023/10/21 07:36:43;;;;;;;0.20;0.20;;;;;;;21.29;60.41;99012.28;5070991;28;20029;-72
2023/10/21 07:39:08;;;;;;;0.20;0.20;;;;;;;21.66;59.26;99022.09;5071590;28;20009;-72
2023/10/21 07:41:34;;;;;;;0.13;0.13;;;;;;;21.51;59.92;99022.78;5071096;28;20442;-71
2023/10/21 07:43:59;;;;;;;0.10;0.10;;;;;;;21.27;61.43;99027.41;5071132;28;20033;-72
2023/10/21 07:46:25;;;;;;;0.25;0.25;;;;;;;21.22;61.26;99031.19;5071071;28;20036;-71
2023/10/21 07:48:51;;;;;;;0.20;0.20;;;;;;;21.06;62.66;99041.16;5071075;28;20028;-71
2023/10/21 07:51:18;;;;;;;0.10;0.10;;;;;;;21.40;61.92;99031.78;5071452;28;20475;-71
2023/10/21 07:53:43;;;;;;;0.10;0.10;;;;;;;21.25;62.74;99041.44;5070676;28;20039;-72
2023/10/21 07:56:09;;;;;;;0.20;0.20;;;;;;;21.47;61.24;99041.00;5070499;28;20032;-72
2023/10/21 07:58:35;;;;;;;0.25;0.25;;;;;;;21.79;61.32;99045.59;5070128;28;20427;-72
2023/10/21 08:01:01;;;;;;;0.10;0.10;;;;;;;21.65;60.87;99053.31;5070563;28;20115;-71
2023/10/21 08:03:26;;;;;;;0.20;0.20;;;;;;;21.72;61.29;99050.81;5070106;28;20035;-72
2023/10/21 08:05:51;;;;;;;0.20;0.20;;;;;;;21.86;60.97;99060.66;5070031;28;20086;-73
2023/10/21 08:08:17;;;;;;;0.10;0.10;;;;;;;22.24;60.49;99063.78;5069616;28;20067;-72
2023/10/21 08:10:42;;;;;;;0.20;0.20;;;;;;;22.29;60.58;99061.59;5070228;28;20158;-72
2023/10/21 08:13:09;;;;;;;0.15;0.15;;;;;;;21.84;62.33;99064.50;5069992;28;20135;-71
2023/10/21 08:15:34;;;;;;;0.10;0.10;;;;;;;22.63;60.15;99063.84;5069628;28;20031;-71
2023/10/21 08:18:00;;;;;;;0.10;0.10;;;;;;;22.25;62.65;99060.69;5071556;28;20035;-71
2023/10/21 08:20:26;;;;;;;0.20;0.20;;;;;;;22.58;60.20;99075.00;5070746;28;20036;-71
2023/10/21 08:22:51;;;;;;;0.10;0.10;;;;;;;22.11;62.27;99076.69;5070202;28;20043;-71
2023/10/21 08:25:18;;;;;;;0.10;0.10;;;;;;;21.48;64.37;99088.28;5070678;28;20033;-72
2023/10/21 08:27:43;;;;;;;0.10;0.10;;;;;;;21.79;63.26;99083.88;5069951;28;20567;-71
2023/10/21 08:30:13;;;;;;;0.10;0.10;;;;;;;22.30;62.88;99081.56;5070541;28;20020;-71
2023/10/21 08:32:38;;;;;;;0.10;0.10;;;;;;;22.53;61.68;99085.38;5069636;28;20067;-71
2023/10/21 08:35:31;;;;;;;0.10;0.10;;;;;;;22.28;62.46;99090.13;5070267;28;20620;-71
2023/10/21 08:37:58;;;;;;;0.10;0.10;;;;;;;22.52;60.55;99087.34;5050186;28;20378;-72
2023/10/21 08:40:25;;;;;;;0.20;0.20;;;;;;;22.46;61.61;99096.94;5049901;28;20032;-72
2023/10/21 08:42:51;;;;;;;0.10;0.10;;;;;;;22.43;61.28;99108.56;5050213;28;20025;-71
2023/10/21 08:45:18;;;;;;;0.20;0.20;;;;;;;21.92;63.62;99113.97;5050838;28;20029;-71
2023/10/21 08:47:44;;;;;;;0.20;0.20;;;;;;;22.06;63.09;99115.22;5049740;28;20033;-72
2023/10/21 08:50:12;;;;;;;0.15;0.15;;;;;;;21.88;63.87;99115.81;5056927;28;20058;-71
2023/10/21 08:52:40;;;;;;;0.10;0.10;;;;;;;22.31;62.88;99122.28;5069746;28;20044;-73
2023/10/21 08:55:06;;;;;;;0.10;0.10;;;;;;;22.78;60.58;99122.53;5070043;28;20047;-72
2023/10/21 08:57:32;;;;;;;0.20;0.20;;;;;;;22.00;62.97;99124.00;5069862;28;20025;-71
2023/10/21 08:59:58;;;;;;;0.10;0.10;;;;;;;21.14;66.64;99127.69;5070512;28;20119;-71
2023/10/21 09:02:25;;;;;;;0.10;0.10;;;;;;;21.21;65.44;99141.59;5069670;28;20029;-72
2023/10/21 09:04:50;;;;;;;0.20;0.20;;;;;;;22.15;62.48;99143.25;5069386;28;20500;-70
2023/10/21 09:07:15;;;;;;;0.10;0.10;;;;;;;22.77;61.38;99145.59;5069243;28;20090;-71
2023/10/21 09:09:41;;;;;;;0.10;0.10;;;;;;;22.67;60.77;99151.56;5069749;28;20024;-72
2023/10/21 09:12:13;;;;;;;0.10;0.10;;;;;;;22.09;64.01;99163.00;5070160;28;20024;-71
2023/10/21 09:14:56;;;;;;;0.10;0.10;;;;;;;22.56;62.18;99156.66;5069728;28;20107;-73
2023/10/21 09:17:45;;;;;;;0.13;0.13;;;;;;;22.97;61.15;99165.75;5053217;28;20132;-72
2023/10/21 09:20:15;;;;;;;0.10;0.10;;;;;;;22.92;61.15;99166.00;5056121;28;20039;-72
2023/10/21 09:22:43;;;;;;;0.10;0.10;;;;;;;23.05;60.74;99170.28;5049617;28;20764;-71
2023/10/21 09:25:20;;;;;;;0.10;0.10;;;;;;;22.19;63.05;99174.28;5056631;28;20043;-72
2023/10/21 09:27:46;;;;;;;0.10;0.10;;;;;;;22.31;63.53;99179.75;5062293;28;20028;-71
2023/10/21 09:30:14;;;;;;;0.10;0.10;;;;;;;21.82;64.92;99184.38;5065015;28;20451;-71
2023/10/21 09:32:41;;;;;;;0.13;0.13;;;;;;;21.37;65.85;99204.63;5052242;28;20539;-70
2023/10/21 09:35:14;;;;;;;0.10;0.10;;;;;;;19.90;71.71;99214.81;5052183;28;20087;-73
2023/10/21 09:37:39;;;;;;;0.20;0.20;;;;;;;19.78;70.95;99225.59;5041355;28;20124;-73
2023/10/21 09:40:06;;;;;;;0.20;0.20;;;;;;;20.34;70.03;99232.63;5056565;28;20129;-73
2023/10/21 09:42:36;;;;;;;0.10;0.10;;;;;;;20.13;69.92;99229.00;5067983;28;20025;-72
2023/10/21 09:45:03;;;;;;;0.10;0.10;;;;;;;20.16;69.33;99231.06;5039417;28;20469;-72
2023/10/21 09:47:29;;;;;;;0.10;0.10;;;;;;;20.80;67.48;99235.25;5036236;28;20036;-73
2023/10/21 09:49:58;;;;;;;0.20;0.20;;;;;;;20.88;66.63;99245.31;5055617;28;20629;-71
2023/10/21 09:52:34;;;;;;;0.20;0.20;;;;;;;20.83;66.87;99256.41;5061897;28;20043;-72
2023/10/21 09:55:07;;;;;;;0.10;0.10;;;;;;;20.70;68.19;99248.47;5056956;28;20073;-72
2023/10/21 09:57:36;;;;;;;0.10;0.10;;;;;;;20.65;66.91;99254.13;5057140;28;20468;-72
2023/10/21 10:00:02;;;;;;;0.10;0.10;;;;;;;20.96;65.25;99257.31;5060189;28;20009;-72
2023/10/21 10:02:30;;;;;;;0.20;0.20;;;;;;;21.22;64.47;99265.34;5058745;28;20040;-73
2023/10/21 10:04:57;;;;;;;0.10;0.10;;;;;;;21.12;64.50;99273.94;5061394;28;20039;-73
2023/10/21 10:07:23;;;;;;;0.17;0.17;;;;;;;21.08;64.69;99273.00;5060213;28;20496;-73
2023/10/21 10:09:49;;;;;;;0.20;0.20;;;;;;;20.78;65.19;99277.66;5061699;28;20226;-72
2023/10/21 10:12:24;;;;;;;0.20;0.20;;;;;;;21.98;60.51;99266.59;5059646;28;20148;-73
2023/10/21 10:14:50;;;;;;;0.20;0.20;;;;;;;21.76;60.98;99272.41;5076034;28;20109;-77
2023/10/21 10:17:51;;;;;;;0.10;0.10;;;;;;;21.39;61.83;99284.34;5052325;28;20036;-73
2023/10/21 10:20:18;;;;;;;0.10;0.10;;;;;;;20.82;62.55;99286.78;5071772;28;20045;-74
2023/10/21 10:22:43;;;;;;;0.10;0.10;;;;;;;21.20;62.02;99282.09;5080511;28;20036;-74
2023/10/21 10:25:15;;;;;;;0.10;0.10;;;;;;;21.50;60.69;99294.53;5081309;28;20028;-71
2023/10/21 10:27:42;;;;;;;0.10;0.10;;;;;;;21.81;60.36;99300.41;5058594;28;20029;-72
2023/10/21 10:30:19;;;;;;;0.10;0.10;;;;;;;22.21;58.39;99292.41;5079058;28;20032;-73
2023/10/21 10:32:47;;;;;;;0.10;0.10;;;;;;;21.67;59.30;99307.25;5053412;28;20033;-73
2023/10/21 10:35:37;;;;;;;0.10;0.10;;;;;;;22.01;58.04;99317.91;5070634;28;20508;-73
2023/10/21 10:38:16;;;;;;;0.13;0.13;;;;;;;21.24;59.42;99323.19;5064533;28;20147;-72
2023/10/21 10:40:44;;;;;;;0.10;0.10;;;;;;;21.98;57.43;99329.50;5070472;28;20508;-73
2023/10/21 10:43:13;;;;;;;0.10;0.10;;;;;;;20.71;59.65;99319.16;5071073;28;20253;-72
2023/10/21 10:45:39;;;;;;;0.10;0.10;;;;;;;20.79;58.97;99331.16;5054035;28;20032;-72
2023/10/21 10:48:07;;;;;;;0.10;0.10;;;;;;;21.49;57.41;99327.66;5071374;28;20334;-72
2023/10/21 10:50:39;;;;;;;0.10;0.10;;;;;;;21.27;59.82;99330.72;5070072;28;20044;-73
2023/10/21 10:53:22;;;;;;;0.10;0.10;;;;;;;21.67;56.42;99331.88;5069625;28;20086;-71
2023/10/21 10:55:49;;;;;;;0.10;0.10;;;;;;;21.17;58.63;99331.91;5054995;28;20063;-71
2023/10/21 10:58:15;;;;;;;0.10;0.10;;;;;;;22.01;55.78;99333.50;5070067;28;20395;-73
2023/10/21 11:00:41;;;;;;;0.10;0.10;;;;;;;21.73;56.73;99339.53;5069369;28;20086;-72
2023/10/21 11:03:08;;;;;;;0.10;0.10;;;;;;;21.27;56.82;99334.25;5071156;28;20058;-73
2023/10/21 11:05:37;;;;;;;0.10;0.10;;;;;;;22.06;54.74;99344.25;5052278;28;20170;-72
2023/10/21 11:08:04;;;;;;;0.20;0.20;;;;;;;22.53;53.95;99323.59;5069001;28;20040;-72
2023/10/21 11:10:30;;;;;;;0.10;0.10;;;;;;;23.22;52.89;99335.25;5077137;28;20051;-72
2023/10/21 11:12:55;;;;;;;0.10;0.10;;;;;;;22.33;54.88;99335.41;5080893;28;20043;-73
2023/10/21 11:15:23;;;;;;;0.10;0.10;;;;;;;23.52;51.15;99339.34;5076675;28;20051;-72
2023/10/21 11:17:51;;;;;;;0.10;0.10;;;;;;;23.82;51.66;99341.75;5078371;28;20042;-74
2023/10/21 11:20:16;;;;;;;0.08;0.08;;;;;;;23.38;52.29;99352.63;5078160;28;20047;-72
2023/10/21 11:22:42;;;;;;;0.10;0.10;;;;;;;23.14;51.57;99351.81;5078228;28;20562;-72
2023/10/21 11:25:08;;;;;;;0.10;0.10;;;;;;;23.27;52.65;99354.19;5081193;28;20024;-72
2023/10/21 11:27:36;;;;;;;0.10;0.10;;;;;;;23.46;53.10;99353.63;5080120;28;20032;-71
2023/10/21 11:30:07;;;;;;;0.10;0.10;;;;;;;22.46;54.46;99361.69;5076156;28;20028;-71
2023/10/21 11:32:34;;;;;;;0.10;0.10;;;;;;;22.44;54.44;99359.31;5078285;28;20151;-71